| time (UTC) | temp F | wind direction | speed knots | gust knots | rain 1hr in | rain 24hr in | rain mn in | humidity % | barometer mb |
| 20260507083021 | 55 | 0 | 0.0 | 0.0 | 0.00 | 0.00 | 0.00 | 79 | 1018.6 |
| 20260507082023 | 54 | 0 | 0.0 | 0.0 | 0.00 | 0.00 | 0.00 | 80 | 1018.5 |
| 20260507081036 | 54 | 0 | 0.0 | 0.0 | 0.00 | 0.00 | 0.00 | 80 | 1018.4 |
| 20260507080039 | 54 | 0 | 0.0 | 0.0 | 0.00 | 0.01 | 0.00 | 80 | 1018.4 |
| 20260507075035 | 53 | 0 | 0.0 | 0.0 | 0.00 | 0.01 | 0.00 | 80 | 1018.4 |
| 20260507072037 | 53 | 0 | 0.0 | 0.0 | 0.00 | 0.03 | 0.00 | 82 | 1018.2 |
| 20260507071034 | 52 | 0 | 0.0 | 0.0 | 0.00 | 0.03 | 0.00 | 82 | 1018.2 |
| 20260507070034 | 53 | 0 | 0.0 | 0.0 | 0.00 | 0.03 | 0.00 | 81 | 1018.2 |
| 20260507065024 | 52 | 0 | 0.0 | 0.0 | 0.00 | 0.03 | 0.00 | 82 | 1018.1 |
| 20260507064022 | 52 | 0 | 0.0 | 0.0 | 0.00 | 0.04 | 0.00 | 84 | 1018.1 |
| 20260507062033 | 51 | 0 | 0.0 | 0.0 | 0.00 | 0.06 | 0.00 | 89 | 1017.9 |
| 20260507061034 | 50 | 0 | 0.0 | 0.0 | 0.00 | 0.06 | 0.00 | 90 | 1017.8 |
| 20260507060040 | 50 | 0 | 0.0 | 0.0 | 0.00 | 0.06 | 0.00 | 93 | 1017.8 |
| 20260507055034 | 49 | 0 | 0.0 | 0.0 | 0.00 | 0.08 | 0.00 | 94 | 1017.7 |
| 20260507054038 | 49 | 0 | 0.0 | 0.0 | 0.00 | 0.08 | 0.00 | 95 | 1017.6 |
| 20260507052039 | 48 | 0 | 0.0 | 0.0 | 0.00 | 0.09 | 0.00 | 94 | 1017.5 |
| 20260507051022 | 48 | 0 | 0.0 | 0.0 | 0.00 | 0.09 | 0.00 | 94 | 1017.4 |
| 20260507050023 | 48 | 0 | 0.0 | 0.0 | 0.00 | 0.09 | 0.00 | 95 | 1017.3 |
| 20260507045039 | 48 | 0 | 0.0 | 0.0 | 0.00 | 0.09 | 0.00 | 95 | 1017.2 |
| 20260507044036 | 48 | 0 | 0.0 | 0.0 | 0.00 | 0.09 | 0.00 | 95 | 1017.0 |
| 20260507043035 | 48 | 0 | 0.0 | 0.0 | 0.00 | 0.09 | 0.00 | 95 | 1017.0 |
| 20260507042039 | 48 | 0 | 0.0 | 0.0 | 0.00 | 0.09 | 0.00 | 96 | 1016.9 |
| 20260507034043 | 48 | 0 | 0.0 | 0.0 | 0.00 | 0.14 | 0.00 | 96 | 1016.6 |
| 20260507024037 | 48 | 0 | 0.0 | 0.0 | 0.00 | 0.14 | 0.00 | 98 | 1016.5 |
| 20260507023040 | 48 | 0 | 0.0 | 0.0 | 0.00 | 0.14 | 0.00 | 98 | 1016.4 |
| 20260507022039 | 48 | 0 | 0.0 | 0.0 | 0.00 | 0.14 | 0.00 | 98 | 1016.3 |
| 20260507012034 | 48 | 0 | 0.0 | 0.0 | 0.00 | 0.17 | 0.00 | 97 | 1016.2 |
| 20260507010039 | 48 | 0 | 0.0 | 0.0 | 0.00 | 0.20 | 0.00 | 97 | 1016.2 |
| 20260507003022 | 48 | 0 | 0.0 | 0.0 | 0.00 | 0.22 | 0.00 | 95 | 1016.1 |
| 20260506234037 | 48 | 0 | 0.0 | 0.0 | 0.00 | 0.28 | 0.00 | 96 | 1015.9 |
| 20260506231038 | 48 | 0 | 0.0 | 0.0 | 0.00 | 0.32 | 0.00 | 97 | 1015.7 |
| 20260506230038 | 48 | 0 | 0.0 | 0.0 | 0.00 | 0.34 | 0.00 | 96 | 1015.6 |
| 20260506225037 | 48 | 0 | 0.0 | 0.0 | 0.00 | 0.35 | 0.00 | 96 | 1015.5 |
| 20260506224039 | 48 | 0 | 0.0 | 0.0 | 0.00 | 0.37 | 0.00 | 96 | 1015.4 |
| 20260506223036 | 48 | 0 | 0.0 | 0.0 | 0.00 | 0.40 | 0.00 | 96 | 1015.4 |
| 20260506222037 | 48 | 0 | 0.0 | 0.0 | 0.00 | 0.41 | 0.00 | 96 | 1015.3 |
| 20260506221037 | 48 | 0 | 0.0 | 0.0 | 0.00 | 0.43 | 0.00 | 96 | 1015.2 |
| 20260506215037 | 48 | 0 | 0.0 | 0.0 | 0.00 | 0.45 | 0.43 | 96 | 1015.1 |
| 20260506212031 | 48 | 0 | 0.0 | 0.0 | 0.00 | 0.46 | 0.43 | 95 | 1015.0 |
| 20260506210032 | 49 | 0 | 0.0 | 0.0 | 0.00 | 0.49 | 0.43 | 94 | 1014.9 |
| 20260506205042 | 49 | 0 | 0.0 | 0.0 | 0.00 | 0.49 | 0.43 | 94 | 1014.8 |
| 20260506203038 | 49 | 0 | 0.0 | 0.0 | 0.00 | 0.51 | 0.43 | 93 | 1014.8 |
| 20260506202050 | 49 | 0 | 0.0 | 0.0 | 0.00 | 0.54 | 0.43 | 93 | 1014.7 |
| 20260506201039 | 49 | 0 | 0.0 | 0.0 | 0.00 | 0.54 | 0.43 | 92 | 1014.7 |
| 20260506200040 | 50 | 0 | 0.0 | 0.0 | 0.00 | 0.57 | 0.43 | 91 | 1014.6 |
| 20260506195033 | 50 | 0 | 0.0 | 0.0 | 0.00 | 0.57 | 0.43 | 91 | 1014.4 |
| 20260506194037 | 50 | 0 | 0.0 | 0.0 | 0.00 | 0.59 | 0.43 | 90 | 1014.3 |
| 20260506190043 | 51 | 0 | 0.0 | 0.0 | 0.00 | 0.65 | 0.43 | 86 | 1013.8 |
| 20260506185038 | 51 | 0 | 0.0 | 0.0 | 0.00 | 0.65 | 0.43 | 86 | 1013.7 |
| 20260506184036 | 52 | 0 | 0.0 | 0.0 | 0.00 | 0.66 | 0.43 | 86 | 1013.6 |
| 20260506183042 | 53 | 0 | 0.0 | 0.0 | 0.00 | 0.66 | 0.43 | 83 | 1013.5 |
| 20260506182040 | 53 | 0 | 0.0 | 0.0 | 0.00 | 0.67 | 0.43 | 83 | 1013.3 |
| 20260506180039 | 54 | 0 | 0.0 | 0.0 | 0.00 | 0.69 | 0.43 | 83 | 1013.0 |
| 20260506175039 | 53 | 0 | 0.0 | 0.0 | 0.00 | 0.69 | 0.43 | 83 | 1012.8 |
| 20260506174042 | 54 | 0 | 0.0 | 0.0 | 0.00 | 0.69 | 0.43 | 84 | 1012.7 |
| 20260506173038 | 53 | 0 | 0.0 | 0.0 | 0.00 | 0.69 | 0.43 | 86 | 1012.6 |
| 20260506171041 | 53 | 0 | 0.0 | 0.0 | 0.00 | 0.69 | 0.43 | 85 | 1012.5 |
| 20260506165031 | 54 | 0 | 0.0 | 0.0 | 0.00 | 0.69 | 0.43 | 83 | 1012.3 |
| 20260506164038 | 55 | 0 | 0.0 | 0.0 | 0.00 | 0.69 | 0.43 | 82 | 1012.2 |
| 20260506163041 | 55 | 0 | 0.0 | 0.0 | 0.00 | 0.69 | 0.43 | 83 | 1012.1 |
| 20260506162035 | 55 | 0 | 0.0 | 0.0 | 0.00 | 0.69 | 0.43 | 83 | 1012.1 |
| 20260506160036 | 55 | 0 | 0.0 | 0.0 | 0.00 | 0.69 | 0.43 | 83 | 1012.1 |
| 20260506155039 | 55 | 0 | 0.0 | 0.0 | 0.00 | 0.69 | 0.43 | 80 | 1012.0 |
| 20260506154034 | 56 | 0 | 0.0 | 0.0 | 0.00 | 0.69 | 0.43 | 77 | 1012.0 |
| 20260506153039 | 56 | 0 | 0.0 | 0.0 | 0.00 | 0.69 | 0.43 | 80 | 1012.0 |
| 20260506152036 | 56 | 0 | 0.0 | 0.0 | 0.00 | 0.69 | 0.43 | 82 | 1011.9 |
| 20260506151042 | 57 | 0 | 0.0 | 0.0 | 0.00 | 0.69 | 0.43 | 78 | 1011.8 |
| 20260506150036 | 57 | 0 | 0.0 | 0.0 | 0.00 | 0.69 | 0.43 | 81 | 1011.8 |
| 20260506144037 | 56 | 0 | 0.0 | 0.0 | 0.00 | 0.69 | 0.43 | 83 | 1011.8 |
| 20260506143037 | 56 | 0 | 0.0 | 0.0 | 0.00 | 0.69 | 0.43 | 84 | 1011.8 |
| 20260506141034 | 56 | 0 | 0.0 | 0.0 | 0.00 | 0.69 | 0.43 | 86 | 1011.8 |
| 20260506140040 | 55 | 0 | 0.0 | 0.0 | 0.00 | 0.69 | 0.43 | 83 | 1011.8 |
| 20260506134037 | 55 | 0 | 0.0 | 0.0 | 0.00 | 0.69 | 0.43 | 88 | 1011.8 |
| 20260506133041 | 54 | 0 | 0.0 | 0.0 | 0.00 | 0.69 | 0.43 | 91 | 1011.8 |
| 20260506132038 | 54 | 0 | 0.0 | 0.0 | 0.00 | 0.69 | 0.43 | 93 | 1011.8 |
| 20260506131036 | 55 | 0 | 0.0 | 0.0 | 0.00 | 0.69 | 0.43 | 90 | 1011.8 |
| 20260506125037 | 55 | 0 | 0.0 | 0.0 | 0.00 | 0.69 | 0.43 | 90 | 1011.6 |
| 20260506124038 | 54 | 0 | 0.0 | 0.0 | 0.00 | 0.69 | 0.43 | 92 | 1011.6 |
| 20260506120038 | 52 | 0 | 0.0 | 0.0 | 0.00 | 0.69 | 0.43 | 96 | 1011.6 |
| 20260506114039 | 53 | 0 | 0.0 | 0.0 | 0.00 | 0.69 | 0.43 | 90 | 1011.5 |
| 20260506113036 | 54 | 0 | 0.0 | 0.0 | 0.00 | 0.69 | 0.43 | 91 | 1011.5 |
| 20260506112035 | 53 | 0 | 0.0 | 0.0 | 0.00 | 0.69 | 0.43 | 95 | 1011.6 |
| 20260506111037 | 52 | 0 | 0.0 | 0.0 | 0.00 | 0.69 | 0.43 | 96 | 1011.7 |
| 20260506105039 | 51 | 0 | 0.0 | 0.0 | 0.00 | 0.69 | 0.43 | 10 | 1011.7 |
| 20260506104037 | 51 | 0 | 0.0 | 0.0 | 0.00 | 0.69 | 0.43 | 99 | 1011.8 |
| 20260506101037 | 51 | 0 | 0.0 | 0.0 | 0.00 | 0.69 | 0.43 | 10 | 1011.5 |
| 20260506095040 | 51 | 0 | 0.0 | 0.0 | 0.00 | 0.69 | 0.43 | 10 | 1011.5 |
| 20260506094034 | 50 | 0 | 0.0 | 0.0 | 0.00 | 0.69 | 0.43 | 10 | 1011.4 |
| 20260506093038 | 50 | 0 | 0.0 | 0.0 | 0.00 | 0.69 | 0.43 | 10 | 1011.2 |
| 20260506091040 | 50 | 0 | 0.0 | 0.0 | 0.00 | 0.69 | 0.43 | 10 | 1011.2 |
| 20260506085036 | 49 | 0 | 0.0 | 0.0 | 0.01 | 0.69 | 0.43 | 10 | 1011.2 |
| 20260506084035 | 49 | 0 | 0.0 | 0.0 | 0.01 | 0.69 | 0.43 | 10 | 1011.1 |